Pittsburgh International Airport
KPIT : now visible

Airfield :











YOU CAN JOIN US ON...

 
LOGIN :

Register | Disclaimer

   EN    FR    IT 

 









Legend :    VFR   Marginal VFR   IFR   Intensive IFR   Very Intensive IFR
Visi :
Ceiling :
>= 8 km
>= 3000ft
5 to 8 km
1000 to 3000 ft
1500m to 5 km
500 to 1000 ft
800 to 1500m
200 to 500 ft
< 800m
< 200 ft
Symbols :   Thunderstorms  Fog  Heavy snow  Heavy precipitations  Wind > 20 kt







- Airport Elevation : 1203 ft
- IATA code : PIT


KPIT - Pittsburgh International

CURRENT METAR :
  • 151051Z 00000KT 10SM FEW250 13/11 A3022 RMK AO2 SLP238 T01280106 $

EXPIRED METARs :
  • 150951Z 00000KT 10SM CLR 13/11 A3022 RMK AO2 SLP236 T01280106 $
  • 150851Z 00000KT 10SM FEW240 13/11 A3022 RMK AO2 SLP235 T01330111 58005

TAF KPIT
Valid from the 15 at 09:00 until the 16 at 12:00 UTC


150901Z 1509/1612 VRB05KT P6SM SKC
FM152200 VRB03KT P6SM BKN120
FM160900 VRB03KT P6SM OVC050
No reported NOTAMs for that airfield.



MET'MAP, your aeronautical weather chart ! - Copyright ORBIFLY December 2007 - Disclaimer

ORBIFLY MET'MAP TEAM :

Programming & Development : Alexandra Zaïnal
Concept & Development : Baudouin d'Aumeries
Co-Development & Prog : Marc-Olivier Méhu
Technical & hardware support : Manuel Goepfert

Contact : metmap@orbifly.com




SOURCES & CREDITS :

   NOAA       Earth
Advisory